createdAt,value
2019-04-16T00:00:17.497Z,4.40
2019-04-16T00:02:27.535Z,4.40
2019-04-16T00:04:49.709Z,4.50
2019-04-16T00:07:13.468Z,4.60
2019-04-16T00:09:32.610Z,4.60
2019-04-16T00:11:42.518Z,4.70
2019-04-16T00:13:52.424Z,4.60
2019-04-16T00:15:58.445Z,4.60
2019-04-16T00:18:04.123Z,4.50
2019-04-16T00:20:10.570Z,4.40
2019-04-16T00:22:17.717Z,4.40
2019-04-16T00:24:27.836Z,4.30
2019-04-16T00:26:33.650Z,4.30
2019-04-16T00:28:40.220Z,4.10
2019-04-16T00:30:45.937Z,4.00
2019-04-16T00:32:51.532Z,4.00
2019-04-16T00:34:57.144Z,3.90
2019-04-16T00:37:02.729Z,3.90
2019-04-16T00:39:08.301Z,3.90
2019-04-16T00:41:14.445Z,3.80
2019-04-16T00:43:20.041Z,3.70
2019-04-16T00:45:25.682Z,3.70
2019-04-16T00:47:32.289Z,3.70
2019-04-16T00:49:38.170Z,3.60
2019-04-16T00:51:43.843Z,3.60
2019-04-16T00:53:49.357Z,3.60
2019-04-16T00:55:54.866Z,3.60
2019-04-16T00:58:00.395Z,3.60
2019-04-16T01:00:09.154Z,3.50
2019-04-16T01:02:15.142Z,3.60
2019-04-16T01:04:20.735Z,3.60
2019-04-16T01:06:26.355Z,3.60
2019-04-16T01:08:31.861Z,3.70
2019-04-16T01:10:37.423Z,3.70
2019-04-16T01:12:42.962Z,3.80
2019-04-16T01:14:48.473Z,3.80
2019-04-16T01:16:54.927Z,3.90
2019-04-16T01:19:00.489Z,3.90
2019-04-16T01:21:06.064Z,3.90
2019-04-16T01:23:11.712Z,3.80
2019-04-16T01:25:17.430Z,3.80
2019-04-16T01:27:28.551Z,4.00
2019-04-16T01:29:33.956Z,3.90
2019-04-16T01:31:55.918Z,3.90
2019-04-16T01:34:15.293Z,4.00
2019-04-16T01:36:24.004Z,4.00
2019-04-16T01:38:38.325Z,4.00
2019-04-16T01:40:47.370Z,3.90
2019-04-16T01:42:54.711Z,3.90
2019-04-16T01:45:00.703Z,3.90
2019-04-16T01:47:06.709Z,3.80
2019-04-16T01:49:12.230Z,3.70
2019-04-16T01:51:29.613Z,3.70
2019-04-16T01:53:35.140Z,3.60
2019-04-16T01:55:42.476Z,3.60
2019-04-16T01:57:47.937Z,3.60
2019-04-16T01:59:53.513Z,3.60
2019-04-16T02:02:00.256Z,3.50
2019-04-16T02:04:05.837Z,3.40
2019-04-16T02:06:11.627Z,3.30
2019-04-16T02:08:17.201Z,3.20
2019-04-16T02:10:22.764Z,3.10
2019-04-16T02:12:28.397Z,3.10
2019-04-16T02:14:33.980Z,3.10
2019-04-16T02:16:39.548Z,3.00
2019-04-16T02:18:45.117Z,3.00
2019-04-16T02:20:50.691Z,3.00
2019-04-16T02:22:56.274Z,3.10
2019-04-16T02:25:02.575Z,3.10
2019-04-16T02:27:27.517Z,3.10
2019-04-16T02:29:33.087Z,3.10
2019-04-16T02:31:38.609Z,3.10
2019-04-16T02:33:44.122Z,3.30
2019-04-16T02:35:49.721Z,3.30
2019-04-16T02:37:55.248Z,3.30
2019-04-16T02:40:01.052Z,3.30
2019-04-16T02:42:06.935Z,3.20
2019-04-16T02:44:15.931Z,3.20
2019-04-16T02:46:19.823Z,3.20
2019-04-16T02:48:25.345Z,3.20
2019-04-16T02:50:35.545Z,3.20
2019-04-16T02:52:51.168Z,3.30
2019-04-16T02:55:10.900Z,3.20
2019-04-16T02:57:25.808Z,3.00
2019-04-16T02:59:32.105Z,3.20
2019-04-16T03:01:42.220Z,3.10
2019-04-16T03:03:49.460Z,3.20
2019-04-16T03:06:00.697Z,3.20
2019-04-16T03:08:05.055Z,3.20
2019-04-16T03:10:13.262Z,3.30
2019-04-16T03:12:20.994Z,3.40
2019-04-16T03:14:29.720Z,3.40
2019-04-16T03:16:38.756Z,3.20
2019-04-16T03:18:47.391Z,3.20
2019-04-16T03:20:55.621Z,3.30
2019-04-16T03:23:05.161Z,3.30
2019-04-16T03:25:12.583Z,3.30
2019-04-16T03:27:15.828Z,3.20
2019-04-16T03:29:21.429Z,3.30
2019-04-16T03:31:26.961Z,3.30
2019-04-16T03:33:32.534Z,3.20
2019-04-16T03:35:38.188Z,3.20
2019-04-16T03:37:43.820Z,3.20
2019-04-16T03:39:49.336Z,3.10
2019-04-16T03:41:56.230Z,3.10
2019-04-16T03:44:04.101Z,3.00
2019-04-16T03:46:12.151Z,3.10
2019-04-16T03:48:16.500Z,3.00
2019-04-16T03:50:22.021Z,3.00
2019-04-16T03:52:27.520Z,3.10
2019-04-16T03:54:33.039Z,3.00
2019-04-16T03:56:38.600Z,3.00
2019-04-16T03:58:44.187Z,3.00
2019-04-16T04:00:49.782Z,2.90
2019-04-16T04:02:55.487Z,2.90
2019-04-16T04:05:04.347Z,2.90
2019-04-16T04:07:08.778Z,2.90
2019-04-16T04:09:18.981Z,2.90
2019-04-16T04:11:23.737Z,2.90
2019-04-16T04:13:29.323Z,2.90
2019-04-16T04:15:34.933Z,2.90
2019-04-16T04:17:40.581Z,3.00
2019-04-16T04:19:46.833Z,3.00
2019-04-16T04:21:53.696Z,3.00
2019-04-16T04:24:00.697Z,3.10
2019-04-16T04:26:08.925Z,3.10
2019-04-16T04:28:18.762Z,3.00
2019-04-16T04:30:22.556Z,3.00
2019-04-16T04:32:28.122Z,3.00
2019-04-16T04:34:33.720Z,3.00
2019-04-16T04:36:39.232Z,3.10
2019-04-16T04:38:44.743Z,3.00
2019-04-16T04:40:51.416Z,3.00
2019-04-16T04:42:57.731Z,3.00
2019-04-16T04:45:09.165Z,3.10
2019-04-16T04:47:15.536Z,3.10
2019-04-16T04:49:20.235Z,3.10
2019-04-16T04:51:25.856Z,3.00
2019-04-16T04:53:31.435Z,3.00
2019-04-16T04:55:37.959Z,3.10
2019-04-16T04:57:43.489Z,3.20
2019-04-16T04:59:49.060Z,3.20
2019-04-16T05:01:54.645Z,3.30
2019-04-16T05:04:20.624Z,3.30
2019-04-16T05:06:30.475Z,3.40
2019-04-16T05:08:35.996Z,3.40
2019-04-16T05:10:43.294Z,3.50
2019-04-16T05:12:52.605Z,3.60
2019-04-16T05:14:58.515Z,3.60
2019-04-16T05:17:03.547Z,3.70
2019-04-16T05:19:13.820Z,3.70
2019-04-16T05:21:19.002Z,3.80
2019-04-16T05:23:26.003Z,3.80
2019-04-16T05:25:34.082Z,3.90
2019-04-16T05:27:41.070Z,4.00
2019-04-16T05:29:48.879Z,4.00
2019-04-16T05:31:56.954Z,4.10
2019-04-16T05:34:02.416Z,4.10
2019-04-16T05:36:10.968Z,4.20
2019-04-16T05:38:15.200Z,4.40
2019-04-16T05:40:20.843Z,4.40
2019-04-16T05:42:26.424Z,4.40
2019-04-16T05:44:33.996Z,4.60
2019-04-16T05:46:41.778Z,4.80
2019-04-16T05:48:46.250Z,4.90
2019-04-16T05:50:51.780Z,5.10
2019-04-16T05:52:57.492Z,5.60
2019-04-16T05:55:19.297Z,6.30
2019-04-16T05:57:27.483Z,7.20
2019-04-16T05:59:34.420Z,7.80
2019-04-16T06:01:45.394Z,8.50
2019-04-16T06:03:52.870Z,8.90
2019-04-16T06:05:59.255Z,9.40
2019-04-16T06:08:10.961Z,9.90
2019-04-16T06:10:17.843Z,9.90
2019-04-16T06:12:25.584Z,9.90
2019-04-16T06:14:42.113Z,10.10
2019-04-16T06:16:49.304Z,10.30
2019-04-16T06:18:59.180Z,10.40
2019-04-16T06:21:12.211Z,10.60
2019-04-16T06:23:32.618Z,10.80
2019-04-16T06:25:41.409Z,10.80
2019-04-16T06:27:51.503Z,11.10
2019-04-16T06:30:01.205Z,11.60
2019-04-16T06:32:11.917Z,11.60
2019-04-16T06:34:25.320Z,11.80
2019-04-16T06:36:35.215Z,11.80
2019-04-16T06:38:44.849Z,11.90
2019-04-16T06:41:10.508Z,12.10
2019-04-16T06:43:25.264Z,11.60
2019-04-16T06:45:29.234Z,11.90
2019-04-16T06:47:52.548Z,12.20
2019-04-16T06:49:59.707Z,12.30
2019-04-16T06:52:16.054Z,12.10
2019-04-16T06:54:31.862Z,12.30
2019-04-16T06:56:37.393Z,12.20
2019-04-16T06:58:51.252Z,12.60
2019-04-16T07:01:06.928Z,12.70
2019-04-16T07:03:16.836Z,13.00
2019-04-16T07:05:23.990Z,13.10
2019-04-16T07:07:39.505Z,13.30
2019-04-16T07:09:41.844Z,13.70
2019-04-16T07:12:01.257Z,14.00
2019-04-16T07:14:06.855Z,14.30
2019-04-16T07:16:12.477Z,14.10
2019-04-16T07:18:20.516Z,14.10
2019-04-16T07:20:25.212Z,13.80
2019-04-16T07:22:30.777Z,13.50
2019-04-16T07:24:37.606Z,13.90
2019-04-16T07:26:47.870Z,14.10
2019-04-16T07:29:12.299Z,14.30
2019-04-16T07:31:34.247Z,14.30
2019-04-16T07:33:58.612Z,14.10
2019-04-16T07:36:24.157Z,14.40
2019-04-16T07:38:40.457Z,14.20
2019-04-16T07:40:53.572Z,14.40
2019-04-16T07:43:03.504Z,14.90
2019-04-16T07:45:26.228Z,14.70
2019-04-16T07:47:33.468Z,14.60
2019-04-16T07:49:43.660Z,14.30
2019-04-16T07:51:56.794Z,14.50
2019-04-16T07:54:03.975Z,14.70
2019-04-16T07:56:17.006Z,14.40
2019-04-16T07:58:22.528Z,14.10
2019-04-16T08:00:28.192Z,13.70
2019-04-16T08:02:33.814Z,13.40
2019-04-16T08:04:40.505Z,13.60
2019-04-16T08:06:47.233Z,13.80
2019-04-16T08:08:53.956Z,14.00
2019-04-16T08:11:00.012Z,14.00
2019-04-16T08:13:07.312Z,14.00
2019-04-16T08:15:15.249Z,14.30
2019-04-16T08:17:20.373Z,14.60
2019-04-16T08:19:36.806Z,14.90
2019-04-16T08:21:33.072Z,14.90
2019-04-16T08:23:40.234Z,14.80
2019-04-16T08:25:45.753Z,15.10
2019-04-16T08:27:54.067Z,15.00
2019-04-16T08:30:02.211Z,15.40
2019-04-16T08:32:05.936Z,15.60
2019-04-16T08:34:11.724Z,15.10
2019-04-16T08:36:17.288Z,15.30
2019-04-16T08:38:25.898Z,15.50
2019-04-16T08:40:29.993Z,15.80
2019-04-16T08:42:44.164Z,15.50
2019-04-16T08:44:42.752Z,15.50
2019-04-16T08:46:48.268Z,15.50
2019-04-16T08:48:54.344Z,15.40
2019-04-16T08:51:04.304Z,15.60
2019-04-16T08:53:13.292Z,15.80
2019-04-16T08:55:15.686Z,16.00
2019-04-16T08:57:21.213Z,16.40
2019-04-16T08:59:26.769Z,16.50
2019-04-16T09:04:02.877Z,16.10
2019-04-16T09:06:13.247Z,15.90
2019-04-16T09:08:22.173Z,15.90
2019-04-16T09:10:30.064Z,16.10
2019-04-16T09:12:34.275Z,16.20
2019-04-16T09:14:41.464Z,16.20
2019-04-16T09:16:48.665Z,16.60
2019-04-16T09:18:55.869Z,16.50
2019-04-16T09:21:01.473Z,16.60
2019-04-16T09:23:06.967Z,15.90
2019-04-16T09:25:23.261Z,15.90
2019-04-16T09:27:34.035Z,15.90
2019-04-16T09:29:51.090Z,16.00
2019-04-16T09:32:10.325Z,15.70
2019-04-16T09:34:17.478Z,15.80
2019-04-16T09:36:27.505Z,16.30
2019-04-16T09:38:45.538Z,16.10
2019-04-16T09:40:58.124Z,16.20
2019-04-16T09:43:17.525Z,16.30
2019-04-16T09:45:19.189Z,16.50
2019-04-16T09:47:24.774Z,16.70
2019-04-16T09:49:30.293Z,16.50
2019-04-16T09:51:35.927Z,16.70
2019-04-16T09:53:41.441Z,16.70
2019-04-16T09:55:47.608Z,16.80
2019-04-16T09:57:54.200Z,16.80
2019-04-16T10:00:00.975Z,17.00
2019-04-16T10:02:13.009Z,16.60
2019-04-16T10:04:20.772Z,16.60
2019-04-16T10:06:26.634Z,16.60
2019-04-16T10:08:32.177Z,17.00
2019-04-16T10:10:37.776Z,17.20
2019-04-16T10:12:43.303Z,16.80
2019-04-16T10:14:48.912Z,16.60
2019-04-16T10:16:54.519Z,16.30
2019-04-16T10:19:00.101Z,16.40
2019-04-16T10:21:05.784Z,16.60
2019-04-16T10:23:15.568Z,16.60
2019-04-16T10:25:21.104Z,16.70
2019-04-16T10:27:31.296Z,16.90
2019-04-16T10:29:35.445Z,17.10
2019-04-16T10:31:41.095Z,17.30
2019-04-16T10:33:46.698Z,17.30
2019-04-16T10:35:52.357Z,17.50
2019-04-16T10:37:59.451Z,17.60
2019-04-16T10:40:14.225Z,17.60
2019-04-16T10:42:37.383Z,17.90
2019-04-16T10:45:00.831Z,18.00
2019-04-16T10:47:16.703Z,18.40
2019-04-16T10:49:34.870Z,18.10
2019-04-16T10:51:47.591Z,18.40
2019-04-16T10:54:09.626Z,17.70
2019-04-16T10:56:32.978Z,17.40
2019-04-16T10:58:45.972Z,17.40
2019-04-16T11:01:08.336Z,17.30
2019-04-16T11:03:15.580Z,17.60
2019-04-16T11:05:25.840Z,18.00
2019-04-16T11:07:36.044Z,18.10
2019-04-16T11:09:41.729Z,18.20
2019-04-16T11:11:48.966Z,18.00
2019-04-16T11:14:00.015Z,17.70
2019-04-16T11:16:03.545Z,17.90
2019-04-16T11:18:09.459Z,18.10
2019-04-16T11:20:15.438Z,18.20
2019-04-16T11:22:21.181Z,18.00
2019-04-16T11:24:27.860Z,17.80
2019-04-16T11:26:33.576Z,17.90
2019-04-16T11:28:39.199Z,17.30
2019-04-16T11:30:48.717Z,17.20
2019-04-16T11:32:53.740Z,17.30
2019-04-16T11:34:59.306Z,17.20
2019-04-16T11:37:08.098Z,16.90
2019-04-16T11:39:12.641Z,16.70
2019-04-16T11:41:18.378Z,16.40
2019-04-16T11:43:23.973Z,16.70
2019-04-16T11:45:29.679Z,16.60
2019-04-16T11:47:35.211Z,16.70
2019-04-16T11:49:40.879Z,16.80
2019-04-16T11:51:46.491Z,16.80
2019-04-16T11:53:52.052Z,16.80
2019-04-16T11:55:57.589Z,16.90
2019-04-16T11:58:04.928Z,16.80
2019-04-16T12:00:17.676Z,17.00
2019-04-16T12:02:24.926Z,16.70
2019-04-16T12:04:48.192Z,16.40
2019-04-16T12:07:05.088Z,15.90
2019-04-16T12:09:26.991Z,16.00
2019-04-16T12:11:37.260Z,15.90
2019-04-16T12:14:04.077Z,16.10
2019-04-16T12:16:09.650Z,16.50
2019-04-16T12:18:22.591Z,16.80
2019-04-16T12:20:46.317Z,17.00
2019-04-16T12:23:09.908Z,17.20
2019-04-16T12:25:33.739Z,17.10
2019-04-16T12:27:57.320Z,17.10
2019-04-16T12:30:17.412Z,17.10
2019-04-16T12:32:41.233Z,17.10
2019-04-16T12:34:57.000Z,16.70
2019-04-16T12:37:20.504Z,16.80
2019-04-16T12:39:30.623Z,16.90
2019-04-16T12:41:37.811Z,17.00
2019-04-16T12:43:51.128Z,17.10
2019-04-16T12:46:07.015Z,17.00
2019-04-16T12:48:14.305Z,16.90
2019-04-16T12:50:33.717Z,16.80
2019-04-16T12:52:40.900Z,16.70
2019-04-16T12:54:48.064Z,16.70
2019-04-16T12:57:01.268Z,16.60
2019-04-16T12:59:22.117Z,16.40
2019-04-16T13:01:26.489Z,16.50
2019-04-16T13:03:46.602Z,16.10
2019-04-16T13:06:04.452Z,16.00
2019-04-16T13:08:17.109Z,16.00
2019-04-16T13:10:27.299Z,16.20
2019-04-16T13:12:37.509Z,16.30
2019-04-16T13:15:01.702Z,16.30
2019-04-16T13:17:23.134Z,16.30
2019-04-16T13:19:39.525Z,16.20
2019-04-16T13:21:49.656Z,16.20
2019-04-16T13:23:56.841Z,16.10
2019-04-16T13:26:11.863Z,16.00
2019-04-16T13:28:14.124Z,16.10
2019-04-16T13:30:19.773Z,16.20
2019-04-16T13:32:27.766Z,16.20
2019-04-16T13:34:33.645Z,16.00
2019-04-16T13:36:39.279Z,15.90
2019-04-16T13:39:02.909Z,15.90
2019-04-16T13:41:09.305Z,16.00
2019-04-16T13:43:25.471Z,16.00
2019-04-16T13:45:32.656Z,15.80
2019-04-16T13:47:48.626Z,15.60
2019-04-16T13:50:02.706Z,15.50
2019-04-16T13:52:05.821Z,15.50
2019-04-16T13:54:19.300Z,15.40
2019-04-16T13:56:26.595Z,15.30
2019-04-16T13:58:39.422Z,15.20
2019-04-16T14:00:46.580Z,15.30
2019-04-16T14:02:53.895Z,15.40
2019-04-16T14:05:03.136Z,15.50
2019-04-16T14:07:06.799Z,15.40
2019-04-16T14:09:12.814Z,15.40
2019-04-16T14:11:19.832Z,15.20
2019-04-16T14:13:25.715Z,15.20
2019-04-16T14:15:38.934Z,15.20
2019-04-16T14:17:51.850Z,15.10
2019-04-16T14:19:47.224Z,15.20
2019-04-16T14:21:52.836Z,15.20
2019-04-16T14:23:58.706Z,14.90
2019-04-16T14:26:04.360Z,14.80
2019-04-16T14:28:10.208Z,14.80
2019-04-16T14:30:18.569Z,14.70
2019-04-16T14:32:24.164Z,14.90
2019-04-16T14:34:34.366Z,14.80
2019-04-16T14:36:39.934Z,14.80
2019-04-16T14:38:55.924Z,14.80
2019-04-16T14:41:01.661Z,14.80
2019-04-16T14:43:07.270Z,14.70
2019-04-16T14:45:20.760Z,14.70
2019-04-16T14:47:26.297Z,14.70
2019-04-16T14:49:31.844Z,14.70
2019-04-16T14:51:37.362Z,14.80
2019-04-16T14:53:56.278Z,14.70
2019-04-16T14:56:03.445Z,14.80
2019-04-16T14:58:26.951Z,14.70
2019-04-16T15:00:51.177Z,14.70
2019-04-16T15:02:58.347Z,14.50
2019-04-16T15:05:09.886Z,14.60
2019-04-16T15:07:17.214Z,14.70
2019-04-16T15:09:27.333Z,14.60
2019-04-16T15:11:39.968Z,14.60
2019-04-16T15:13:47.164Z,14.60
2019-04-16T15:16:05.836Z,14.60
2019-04-16T15:18:18.536Z,14.70
2019-04-16T15:20:25.704Z,14.60
2019-04-16T15:22:35.584Z,14.60
2019-04-16T15:24:45.446Z,14.50
2019-04-16T15:26:58.558Z,14.50
2019-04-16T15:29:09.234Z,14.50
2019-04-16T15:31:19.203Z,14.50
2019-04-16T15:33:28.892Z,14.50
2019-04-16T15:35:38.642Z,14.50
2019-04-16T15:37:45.817Z,14.60
2019-04-16T15:40:07.029Z,14.40
2019-04-16T15:42:17.415Z,14.50
2019-04-16T15:44:31.669Z,14.50
2019-04-16T15:46:49.750Z,14.40
2019-04-16T15:49:09.319Z,14.30
2019-04-16T15:51:25.452Z,14.30
2019-04-16T15:53:38.337Z,14.40
2019-04-16T15:55:51.479Z,14.50
2019-04-16T15:58:17.059Z,14.40
2019-04-16T16:00:30.111Z,14.20
2019-04-16T16:02:55.356Z,14.10
2019-04-16T16:05:02.510Z,14.10
2019-04-16T16:07:09.222Z,14.10
2019-04-16T16:09:19.452Z,14.00
2019-04-16T16:11:38.503Z,14.00
2019-04-16T16:13:44.030Z,13.90
2019-04-16T16:15:50.665Z,14.00
2019-04-16T16:17:56.232Z,13.90
2019-04-16T16:20:01.774Z,14.00
2019-04-16T16:22:11.064Z,14.00
2019-04-16T16:24:15.139Z,13.90
2019-04-16T16:26:20.665Z,14.00
2019-04-16T16:28:26.376Z,13.90
2019-04-16T16:30:31.970Z,13.70
2019-04-16T16:32:37.597Z,13.70
2019-04-16T16:34:43.208Z,13.70
2019-04-16T16:36:48.853Z,13.70
2019-04-16T16:38:54.430Z,13.70
2019-04-16T16:41:00.042Z,13.60
2019-04-16T16:43:08.185Z,13.60
2019-04-16T16:45:12.975Z,13.50
2019-04-16T16:47:20.425Z,13.50
2019-04-16T16:49:26.084Z,13.50
2019-04-16T16:51:31.748Z,13.50
2019-04-16T16:53:38.980Z,13.50
2019-04-16T16:55:46.144Z,13.40
2019-04-16T16:57:53.401Z,13.40
2019-04-16T17:00:16.605Z,13.30
2019-04-16T17:02:38.984Z,13.30
2019-04-16T17:04:48.825Z,13.30
2019-04-16T17:06:54.402Z,13.30
2019-04-16T17:08:59.943Z,13.30
2019-04-16T17:11:15.520Z,13.20
2019-04-16T17:13:14.660Z,13.20
2019-04-16T17:15:20.233Z,13.10
2019-04-16T17:17:25.773Z,13.10
2019-04-16T17:19:31.309Z,13.00
2019-04-16T17:21:36.904Z,12.90
2019-04-16T17:23:42.585Z,12.90
2019-04-16T17:25:48.122Z,12.80
2019-04-16T17:27:53.725Z,12.90
2019-04-16T17:29:59.279Z,12.80
2019-04-16T17:32:05.046Z,12.80
2019-04-16T17:34:10.663Z,12.70
2019-04-16T17:36:16.208Z,12.60
2019-04-16T17:38:21.768Z,12.60
2019-04-16T17:40:43.974Z,12.50
2019-04-16T17:42:51.145Z,12.40
2019-04-16T17:44:58.292Z,12.40
2019-04-16T17:47:05.465Z,12.30
2019-04-16T17:49:28.767Z,12.30
2019-04-16T17:51:53.866Z,12.20
2019-04-16T17:54:10.262Z,12.00
2019-04-16T17:56:35.561Z,12.00
2019-04-16T17:58:54.971Z,12.00
2019-04-16T18:01:02.254Z,11.80
2019-04-16T18:03:18.421Z,11.80
2019-04-16T18:05:28.635Z,11.70
2019-04-16T18:07:38.616Z,11.70
2019-04-16T18:10:02.206Z,11.70
2019-04-16T18:12:11.432Z,11.70
2019-04-16T18:14:35.045Z,11.60
2019-04-16T18:16:42.306Z,11.60
2019-04-16T18:19:07.642Z,11.50
2019-04-16T18:21:14.941Z,11.50
2019-04-16T18:23:31.148Z,11.50
2019-04-16T18:25:56.652Z,11.50
2019-04-16T18:28:09.592Z,11.40
2019-04-16T18:30:25.681Z,11.40
2019-04-16T18:32:32.916Z,11.30
2019-04-16T18:34:56.368Z,11.30
2019-04-16T18:37:15.200Z,11.20
2019-04-16T18:39:38.544Z,11.20
2019-04-16T18:41:48.760Z,11.20
2019-04-16T18:44:11.187Z,11.10
2019-04-16T18:46:18.343Z,11.00
2019-04-16T18:48:25.541Z,10.90
2019-04-16T18:50:31.166Z,10.90
2019-04-16T18:52:37.651Z,10.90
2019-04-16T18:54:46.061Z,11.00
2019-04-16T18:56:50.351Z,10.90
2019-04-16T18:58:55.937Z,10.80
2019-04-16T19:01:03.106Z,10.80
2019-04-16T19:03:14.528Z,10.70
2019-04-16T19:05:16.164Z,10.70
2019-04-16T19:07:21.763Z,10.70
2019-04-16T19:09:27.385Z,10.60
2019-04-16T19:11:32.984Z,10.60
2019-04-16T19:13:38.564Z,10.60
2019-04-16T19:15:44.104Z,10.60
2019-04-16T19:17:49.704Z,10.60
2019-04-16T19:19:55.269Z,10.50
2019-04-16T19:22:00.969Z,10.40
2019-04-16T19:24:06.497Z,10.30
2019-04-16T19:26:12.061Z,10.30
2019-04-16T19:28:20.160Z,10.20
2019-04-16T19:30:24.869Z,10.10
2019-04-16T19:32:30.451Z,10.20
2019-04-16T19:34:40.909Z,10.10
2019-04-16T19:36:43.366Z,10.00
2019-04-16T19:38:48.948Z,10.10
2019-04-16T19:40:54.743Z,10.10
2019-04-16T19:43:02.542Z,10.10
2019-04-16T19:45:08.945Z,10.00
2019-04-16T19:47:14.834Z,9.90
2019-04-16T19:49:20.359Z,9.90
2019-04-16T19:51:25.913Z,9.80
2019-04-16T19:53:31.442Z,9.90
2019-04-16T19:55:36.980Z,9.80
2019-04-16T19:57:42.532Z,9.80
2019-04-16T19:59:48.135Z,9.80
2019-04-16T20:01:55.792Z,9.70
2019-04-16T20:04:01.065Z,9.70
2019-04-16T20:06:06.699Z,9.60
2019-04-16T20:08:12.289Z,9.60
2019-04-16T20:10:17.997Z,9.60
2019-04-16T20:12:25.100Z,9.60
2019-04-16T20:14:35.349Z,9.60
2019-04-16T20:16:38.001Z,9.60
2019-04-16T20:18:50.804Z,9.50
2019-04-16T20:20:50.877Z,9.50
2019-04-16T20:22:57.416Z,9.40
2019-04-16T20:25:02.935Z,9.30
2019-04-16T20:27:08.455Z,9.30
2019-04-16T20:29:14.072Z,9.30
2019-04-16T20:31:19.602Z,9.20
2019-04-16T20:33:25.135Z,9.30
2019-04-16T20:35:31.118Z,9.20
2019-04-16T20:37:36.631Z,9.20
2019-04-16T20:39:42.257Z,9.10
2019-04-16T20:41:52.771Z,9.10
2019-04-16T20:43:56.389Z,9.00
2019-04-16T20:46:01.923Z,9.00
2019-04-16T20:48:09.429Z,9.00
2019-04-16T20:50:14.740Z,9.00
2019-04-16T20:52:20.283Z,9.00
2019-04-16T20:54:25.788Z,8.90
2019-04-16T20:56:31.330Z,8.90
2019-04-16T20:58:36.852Z,8.90
2019-04-16T21:00:44.025Z,8.90
2019-04-16T21:02:51.156Z,8.90
2019-04-16T21:04:58.274Z,8.80
2019-04-16T21:07:03.937Z,8.70
2019-04-16T21:09:10.471Z,8.60
2019-04-16T21:11:17.076Z,8.60
2019-04-16T21:13:22.604Z,8.50
2019-04-16T21:15:28.388Z,8.50
2019-04-16T21:17:38.167Z,8.50
2019-04-16T21:19:46.452Z,8.40
2019-04-16T21:21:55.291Z,8.40
2019-04-16T21:23:59.122Z,8.40
2019-04-16T21:26:04.704Z,8.40
2019-04-16T21:28:17.685Z,8.40
2019-04-16T21:30:23.482Z,8.30
2019-04-16T21:32:39.762Z,8.30
2019-04-16T21:34:49.665Z,8.30
2019-04-16T21:37:13.895Z,8.20
2019-04-16T21:39:29.828Z,8.20
2019-04-16T21:41:35.423Z,8.20
2019-04-16T21:43:40.989Z,8.20
2019-04-16T21:45:48.310Z,8.20
2019-04-16T21:47:55.160Z,8.20
2019-04-16T21:50:00.957Z,8.10
2019-04-16T21:52:09.109Z,8.00
2019-04-16T21:54:14.668Z,8.00
2019-04-16T21:56:20.198Z,8.10
2019-04-16T21:58:25.726Z,8.20
2019-04-16T22:00:39.656Z,8.20
2019-04-16T22:02:46.905Z,8.20
2019-04-16T22:04:52.643Z,8.30
2019-04-16T22:06:58.290Z,8.30
2019-04-16T22:09:05.477Z,8.30
2019-04-16T22:11:12.672Z,8.20
2019-04-16T22:13:19.368Z,8.20
2019-04-16T22:15:26.106Z,8.20
2019-04-16T22:17:35.508Z,8.20
2019-04-16T22:19:53.196Z,8.20
2019-04-16T22:21:46.104Z,8.30
2019-04-16T22:23:51.696Z,8.20
2019-04-16T22:26:01.430Z,8.10
2019-04-16T22:28:08.496Z,8.10
2019-04-16T22:30:13.001Z,8.10
2019-04-16T22:32:18.539Z,8.00
2019-04-16T22:34:24.126Z,7.90
2019-04-16T22:36:29.660Z,7.90
2019-04-16T22:38:36.368Z,7.90
2019-04-16T22:40:51.693Z,7.90
2019-04-16T22:43:06.969Z,8.00
2019-04-16T22:45:19.201Z,8.00
2019-04-16T22:47:29.140Z,7.90
2019-04-16T22:49:34.687Z,7.90
2019-04-16T22:51:43.173Z,8.00
2019-04-16T22:53:49.524Z,8.10
2019-04-16T22:55:56.749Z,8.10
2019-04-16T22:58:03.525Z,8.10
2019-04-16T23:00:12.845Z,8.10
2019-04-16T23:02:27.126Z,8.10
2019-04-16T23:04:32.653Z,8.10
2019-04-16T23:06:39.016Z,8.00
2019-04-16T23:08:44.556Z,7.90
2019-04-16T23:10:51.721Z,7.90
2019-04-16T23:13:00.323Z,8.00
2019-04-16T23:15:07.916Z,7.90
2019-04-16T23:17:14.333Z,7.90
2019-04-16T23:19:21.199Z,8.00
2019-04-16T23:21:26.856Z,7.90
2019-04-16T23:23:32.387Z,7.80
2019-04-16T23:25:37.954Z,7.90
2019-04-16T23:27:43.457Z,8.00
2019-04-16T23:29:49.173Z,7.80
2019-04-16T23:31:56.071Z,7.80
2019-04-16T23:34:05.073Z,7.80
2019-04-16T23:36:15.331Z,7.80
2019-04-16T23:38:18.195Z,7.70
2019-04-16T23:40:23.705Z,7.60
2019-04-16T23:42:30.860Z,7.70
2019-04-16T23:44:40.840Z,7.70
2019-04-16T23:46:47.983Z,7.70
2019-04-16T23:48:57.889Z,7.70
2019-04-16T23:51:11.089Z,7.60
2019-04-16T23:53:24.013Z,7.50
2019-04-16T23:55:40.101Z,7.50
2019-04-16T23:57:50.016Z,7.40
